CRA weather

Craiova Airport
Craiova, Dolj, Romania

Public forecast

Using degrees Celsius for public forecast. Weather courtesy of forecast.io.

METAR (pilot weather report)

Retrieved 2019/09/22 21:30 UTC (24 minutes ago):

LRCV 222130Z AUTO VRB02KT 9999 NCD 12/01 Q1017

TAF (pilot weather forecast)

Forecast is more than 12 hours old.

Retrieved 2014/07/19 18:48 UTC (5 years ago):

TAF LRCV 191800Z 1918/2024 CNL